createdAt,value
2019-04-24T00:00:29.666Z,99445.76
2019-04-24T00:03:06.877Z,99449.16
2019-04-24T00:05:52.211Z,99448.24
2019-04-24T00:08:16.271Z,99444.75
2019-04-24T00:16:20.235Z,99448.88
2019-04-24T00:19:01.975Z,99444.25
2019-04-24T00:21:21.556Z,99447.88
2019-04-24T00:24:09.122Z,99450.18
2019-04-24T00:26:28.180Z,99450.23
2019-04-24T00:29:19.275Z,99450.36
2019-04-24T00:31:35.501Z,99447.43
2019-04-24T00:36:51.817Z,99446.73
2019-04-24T00:39:30.914Z,99448.59
2019-04-24T00:41:59.877Z,99448.28
2019-04-24T00:44:16.470Z,99449.27
2019-04-24T00:49:27.428Z,99449.03
2019-04-24T00:51:52.144Z,99447.38
2019-04-24T00:54:27.072Z,99453.45
2019-04-24T00:57:15.019Z,99449.20
2019-04-24T00:59:41.002Z,99451.80
2019-04-24T01:02:32.000Z,99449.64
2019-04-24T01:05:25.320Z,99445.05
2019-04-24T01:08:13.340Z,99445.05
2019-04-24T01:11:11.810Z,99450.25
2019-04-24T01:13:36.948Z,99458.13
2019-04-24T01:18:44.008Z,99463.11
2019-04-24T01:21:33.748Z,99463.11
2019-04-24T01:23:53.874Z,99469.56
2019-04-24T01:26:22.732Z,99468.61
2019-04-24T01:31:45.068Z,99462.55
2019-04-24T01:37:03.762Z,99471.99
2019-04-24T01:42:20.143Z,99471.90
2019-04-24T01:44:58.371Z,99474.58
2019-04-24T01:47:31.590Z,99485.81
2019-04-24T01:54:59.031Z,99486.85
2019-04-24T01:57:36.619Z,99486.85
2019-04-24T02:00:14.117Z,99480.28
2019-04-24T02:05:12.871Z,99488.77
2019-04-24T02:08:11.155Z,99486.53
2019-04-24T02:10:57.760Z,99481.11
2019-04-24T02:13:28.901Z,99483.62
2019-04-24T02:15:56.335Z,99490.08
2019-04-24T02:21:02.101Z,99485.38
2019-04-24T02:23:33.339Z,99493.84
2019-04-24T02:31:23.246Z,99497.22
2019-04-24T02:36:58.080Z,99500.59
2019-04-24T02:47:45.174Z,99502.20
2019-04-24T02:52:45.929Z,99501.38
2019-04-24T03:00:23.641Z,99495.81
2019-04-24T03:03:05.486Z,99501.77
2019-04-24T03:05:40.374Z,99502.98
2019-04-24T03:08:14.253Z,99506.36
2019-04-24T03:13:27.599Z,99507.41
2019-04-24T03:16:33.697Z,99507.41
2019-04-24T03:19:29.643Z,99504.36
2019-04-24T03:21:42.371Z,99507.77
2019-04-24T03:29:29.861Z,99516.17
2019-04-24T03:34:42.943Z,99514.80
2019-04-24T03:39:56.278Z,99519.94
2019-04-24T03:45:08.416Z,99525.48
2019-04-24T03:47:09.070Z,99524.62
2019-04-24T03:58:00.508Z,99523.55
2019-04-24T04:05:29.205Z,99533.94
2019-04-24T04:13:38.113Z,99548.94
2019-04-24T04:18:42.541Z,99544.67
2019-04-24T04:23:54.679Z,99552.83
2019-04-24T04:29:32.831Z,99533.38
2019-04-24T04:32:51.805Z,99541.96
2019-04-24T04:35:09.259Z,99543.25
2019-04-24T04:48:36.415Z,99563.34
2019-04-24T04:53:37.424Z,99561.16
2019-04-24T04:56:34.008Z,99566.72
2019-04-24T05:01:49.553Z,99564.98
2019-04-24T05:07:25.221Z,99563.17
2019-04-24T05:09:50.634Z,99567.36
2019-04-24T05:19:33.262Z,99565.16
2019-04-24T05:27:24.833Z,99578.63
2019-04-24T05:29:53.414Z,99582.76
2019-04-24T05:35:26.307Z,99589.72
2019-04-24T05:38:04.522Z,99592.20
2019-04-24T05:40:46.728Z,99594.25
2019-04-24T05:43:28.881Z,99588.20
2019-04-24T05:46:00.495Z,99596.45
2019-04-24T05:48:36.054Z,99598.25
2019-04-24T05:51:17.135Z,99596.16
2019-04-24T05:59:19.670Z,99595.86
2019-04-24T06:04:32.382Z,99594.58
2019-04-24T06:07:45.575Z,99593.78
2019-04-24T06:12:46.593Z,99598.78
2019-04-24T06:15:30.261Z,99603.47
2019-04-24T06:18:12.359Z,99609.89
2019-04-24T06:23:37.207Z,99614.50
2019-04-24T06:28:38.184Z,99626.61
2019-04-24T06:33:25.998Z,99629.32
2019-04-24T06:38:36.050Z,99624.09
2019-04-24T06:44:37.082Z,99625.45
2019-04-24T06:46:40.488Z,99640.53
2019-04-24T06:52:15.641Z,99636.63
2019-04-24T06:54:18.614Z,99632.23
2019-04-24T06:57:15.206Z,99625.66
2019-04-24T06:59:26.534Z,99624.23
2019-04-24T07:02:18.029Z,99621.94
2019-04-24T07:10:49.319Z,99624.09
2019-04-24T07:13:44.466Z,99632.69
2019-04-24T07:16:02.575Z,99639.86
2019-04-24T07:24:03.719Z,99653.62
2019-04-24T07:26:32.462Z,99655.05
2019-04-24T07:29:08.787Z,99653.47
2019-04-24T07:37:21.259Z,99671.39
2019-04-24T07:39:50.861Z,99697.53
2019-04-24T07:42:12.189Z,99691.89
2019-04-24T07:44:51.791Z,99703.26
2019-04-24T07:47:25.249Z,99707.50
2019-04-24T07:52:49.333Z,99701.51
2019-04-24T07:55:09.937Z,99698.37
2019-04-24T07:57:45.920Z,99693.85
2019-04-24T08:00:19.954Z,99699.28
2019-04-24T08:03:17.827Z,99693.58
2019-04-24T08:05:47.123Z,99692.33
2019-04-24T08:11:37.949Z,99670.94
2019-04-24T08:14:02.646Z,99671.38
2019-04-24T08:16:39.892Z,99656.48
2019-04-24T08:19:48.902Z,99668.58
2019-04-24T08:22:00.778Z,99685.64
2019-04-24T08:24:51.374Z,99707.95
2019-04-24T08:27:17.702Z,99716.26
2019-04-24T08:29:51.006Z,99720.13
2019-04-24T08:32:17.607Z,99713.84
2019-04-24T08:37:29.934Z,99700.70
2019-04-24T08:40:06.750Z,99720.53
2019-04-24T08:45:41.198Z,99718.02
2019-04-24T08:48:39.601Z,99696.23
2019-04-24T08:51:13.179Z,99692.75
2019-04-24T08:53:41.712Z,99688.25
2019-04-24T08:56:09.013Z,99692.20
2019-04-24T08:58:43.571Z,99700.36
2019-04-24T09:04:04.802Z,99717.23
2019-04-24T09:06:36.128Z,99711.95
2019-04-24T09:12:06.770Z,99697.34
2019-04-24T09:17:19.455Z,99685.10
2019-04-24T09:20:02.008Z,99683.97
2019-04-24T09:25:18.022Z,99690.53
2019-04-24T09:27:48.981Z,99686.66
2019-04-24T09:33:09.446Z,99665.42
2019-04-24T09:36:13.360Z,99674.35
2019-04-24T09:51:41.730Z,99626.41
2019-04-24T09:54:24.192Z,99611.90
2019-04-24T09:57:02.079Z,99605.81
2019-04-24T09:59:32.477Z,99588.64
2019-04-24T10:02:27.592Z,99589.03
2019-04-24T10:05:04.788Z,99600.45
2019-04-24T10:10:13.562Z,99632.48
2019-04-24T10:12:47.527Z,99630.17
2019-04-24T10:15:31.822Z,99640.93
2019-04-24T10:20:30.669Z,99666.81
2019-04-24T10:23:44.178Z,99660.42
2019-04-24T10:26:06.234Z,99650.09
2019-04-24T10:32:07.424Z,99640.45
2019-04-24T10:34:49.406Z,99652.88
2019-04-24T10:38:17.083Z,99662.22
2019-04-24T10:40:30.386Z,99667.78
2019-04-24T10:43:10.277Z,99678.47
2019-04-24T10:46:33.003Z,99671.34
2019-04-24T10:49:06.651Z,99660.95
2019-04-24T10:51:49.369Z,99647.41
2019-04-24T10:54:03.430Z,99640.16
2019-04-24T10:59:17.251Z,99633.58
2019-04-24T11:02:26.931Z,99655.89
2019-04-24T11:10:30.198Z,99658.84
2019-04-24T11:13:20.546Z,99635.36
2019-04-24T11:16:08.526Z,99645.86
2019-04-24T11:19:04.648Z,99645.86
2019-04-24T11:21:55.210Z,99646.23
2019-04-24T11:24:39.524Z,99640.36
2019-04-24T11:27:13.992Z,99637.55
2019-04-24T11:29:54.217Z,99635.70
2019-04-24T11:32:43.428Z,99635.70
2019-04-24T11:35:22.262Z,99635.98
2019-04-24T11:38:12.186Z,99628.46
2019-04-24T11:40:44.717Z,99630.48
2019-04-24T11:43:14.003Z,99639.73
2019-04-24T11:46:15.915Z,99642.89
2019-04-24T11:49:20.941Z,99641.26
2019-04-24T11:52:20.129Z,99645.70
2019-04-24T11:59:47.836Z,99643.32
2019-04-24T12:06:15.941Z,99635.78
2019-04-24T12:08:39.831Z,99635.12
2019-04-24T12:11:27.019Z,99625.42
2019-04-24T12:13:58.411Z,99629.09
2019-04-24T12:16:48.851Z,99623.95
2019-04-24T12:19:26.587Z,99628.20
2019-04-24T12:24:43.876Z,99642.77
2019-04-24T12:27:20.411Z,99642.77
2019-04-24T12:29:49.977Z,99640.54
2019-04-24T12:35:21.990Z,99639.40
2019-04-24T12:40:40.877Z,99623.44
2019-04-24T12:43:08.739Z,99618.81
2019-04-24T12:45:48.607Z,99625.61
2019-04-24T12:48:08.128Z,99622.19
2019-04-24T12:50:52.894Z,99623.83
2019-04-24T12:53:32.561Z,99626.75
2019-04-24T12:56:16.822Z,99618.56
2019-04-24T13:01:50.191Z,99605.42
2019-04-24T13:06:55.000Z,99604.34
2019-04-24T13:09:38.541Z,99607.31
2019-04-24T13:12:33.869Z,99599.88
2019-04-24T13:15:01.779Z,99596.02
2019-04-24T13:17:48.216Z,99596.80
2019-04-24T13:19:33.413Z,99594.63
2019-04-24T13:22:12.783Z,99589.05
2019-04-24T13:25:13.486Z,99593.59
2019-04-24T13:28:14.575Z,99592.69
2019-04-24T13:30:43.997Z,99589.85
2019-04-24T13:33:21.072Z,99568.80
2019-04-24T13:35:55.077Z,99568.80
2019-04-24T13:38:24.681Z,99582.34
2019-04-24T13:40:56.670Z,99582.34
2019-04-24T13:46:07.762Z,99568.96
2019-04-24T13:51:03.923Z,99557.49
2019-04-24T13:56:04.582Z,99553.06
2019-04-24T14:01:37.100Z,99558.85
2019-04-24T14:06:37.666Z,99560.59
2019-04-24T14:12:28.515Z,99561.98
2019-04-24T14:16:42.223Z,99562.12
2019-04-24T14:22:08.865Z,99565.48
2019-04-24T14:24:54.968Z,99563.87
2019-04-24T14:27:10.093Z,99556.34
2019-04-24T14:29:48.562Z,99561.04
2019-04-24T14:32:18.122Z,99558.97
2019-04-24T14:34:57.754Z,99553.71
2019-04-24T14:37:16.792Z,99547.31
2019-04-24T14:40:01.557Z,99547.31
2019-04-24T14:45:19.057Z,99565.14
2019-04-24T14:47:42.251Z,99564.55
2019-04-24T14:50:25.011Z,99557.86
2019-04-24T14:52:41.851Z,99559.87
2019-04-24T14:55:24.687Z,99546.69
2019-04-24T14:57:52.194Z,99546.69
2019-04-24T15:00:22.839Z,99542.43
2019-04-24T15:10:36.250Z,99538.24
2019-04-24T15:16:11.061Z,99529.16
2019-04-24T15:18:19.437Z,99542.31
2019-04-24T15:29:01.842Z,99525.31
2019-04-24T15:31:03.803Z,99525.41
2019-04-24T15:33:49.906Z,99514.39
2019-04-24T15:38:49.657Z,99510.17
2019-04-24T15:41:23.933Z,99507.60
2019-04-24T15:43:47.746Z,99506.84
2019-04-24T15:46:16.697Z,99506.78
2019-04-24T15:48:59.402Z,99509.59
2019-04-24T15:51:26.165Z,99504.05
2019-04-24T15:53:32.457Z,99495.59
2019-04-24T15:56:04.576Z,99495.59
2019-04-24T15:58:44.442Z,99503.73
2019-04-24T16:01:41.624Z,99510.81
2019-04-24T16:04:31.421Z,99508.91
2019-04-24T16:06:32.745Z,99507.61
2019-04-24T16:09:09.164Z,99512.74
2019-04-24T16:11:41.168Z,99505.00
2019-04-24T16:14:23.983Z,99503.61
2019-04-24T16:17:11.224Z,99511.94
2019-04-24T16:19:56.921Z,99502.64
2019-04-24T16:25:01.509Z,99492.39
2019-04-24T16:27:25.026Z,99485.13
2019-04-24T16:32:52.444Z,99485.53
2019-04-24T16:35:08.259Z,99483.36
2019-04-24T16:40:55.074Z,99482.28
2019-04-24T16:43:18.024Z,99477.20
2019-04-24T16:45:54.063Z,99473.45
2019-04-24T16:51:05.714Z,99474.55
2019-04-24T16:58:15.483Z,99456.67
2019-04-24T17:04:00.024Z,99436.30
2019-04-24T17:08:51.557Z,99448.91
2019-04-24T17:11:19.059Z,99441.54
2019-04-24T17:14:02.511Z,99443.75
2019-04-24T17:17:09.524Z,99448.41
2019-04-24T17:24:22.485Z,99537.34
2019-04-24T17:27:07.232Z,99551.47
2019-04-24T17:29:37.173Z,99563.61
2019-04-24T17:32:21.798Z,99576.50
2019-04-24T17:34:47.864Z,99590.47
2019-04-24T17:36:37.761Z,99613.95
2019-04-24T17:39:25.722Z,99638.12
2019-04-24T17:42:03.435Z,99688.34
2019-04-24T17:47:39.312Z,99845.77
2019-04-24T17:55:11.036Z,99956.63
2019-04-24T18:00:02.203Z,99947.92
2019-04-24T18:02:35.541Z,99958.19
2019-04-24T18:05:09.819Z,99953.03
2019-04-24T18:07:41.990Z,99925.48
2019-04-24T18:10:13.897Z,99921.61
2019-04-24T18:12:45.227Z,99931.86
2019-04-24T18:15:21.965Z,99964.05
2019-04-24T18:17:53.770Z,99982.06
2019-04-24T18:20:26.186Z,100021.50
2019-04-24T18:22:56.990Z,100056.48
2019-04-24T18:25:36.277Z,100052.02
2019-04-24T18:28:07.060Z,100040.28
2019-04-24T18:30:42.871Z,100039.75
2019-04-24T18:33:13.828Z,100043.99
2019-04-24T18:35:44.615Z,100046.92
2019-04-24T18:38:18.095Z,100046.92
2019-04-24T18:40:57.121Z,100064.50
2019-04-24T18:43:27.564Z,100088.42
2019-04-24T18:45:58.187Z,100091.76
2019-04-24T18:48:31.965Z,100083.87
2019-04-24T18:51:02.598Z,100085.11
2019-04-24T18:53:33.130Z,100089.27
2019-04-24T18:56:03.759Z,100103.05
2019-04-24T18:58:34.499Z,100104.80
2019-04-24T19:01:06.941Z,100101.28
2019-04-24T19:03:37.647Z,100099.58
2019-04-24T19:06:25.001Z,100107.66
2019-04-24T19:08:42.991Z,100105.09
2019-04-24T19:11:14.203Z,100118.63
2019-04-24T19:13:45.720Z,100123.72
2019-04-24T19:16:16.195Z,100124.19
2019-04-24T19:18:46.794Z,100130.64
2019-04-24T19:21:18.892Z,100144.27
2019-04-24T19:23:49.232Z,100158.80
2019-04-24T19:26:21.741Z,100155.28
2019-04-24T19:28:52.885Z,100158.63
2019-04-24T19:31:24.573Z,100167.16
2019-04-24T19:33:55.182Z,100194.95
2019-04-24T19:36:26.715Z,100229.80
2019-04-24T19:38:57.408Z,100241.59
2019-04-24T19:41:27.743Z,100259.03
2019-04-24T19:43:58.780Z,100259.44
2019-04-24T19:46:29.180Z,100258.88
2019-04-24T19:48:59.529Z,100254.91
2019-04-24T19:51:31.302Z,100283.41
2019-04-24T19:54:09.512Z,100284.96
2019-04-24T19:56:39.949Z,100259.21
2019-04-24T19:59:11.335Z,100249.28
2019-04-24T20:01:42.418Z,100231.75
2019-04-24T20:04:14.349Z,100224.34
2019-04-24T20:06:45.057Z,100223.92
2019-04-24T20:09:49.871Z,100154.48
2019-04-24T20:12:22.901Z,100161.70
2019-04-24T20:14:53.511Z,100171.24
2019-04-24T20:17:24.221Z,100190.59
2019-04-24T20:19:54.815Z,100192.69
2019-04-24T20:22:25.348Z,100183.66
2019-04-24T20:24:55.925Z,100183.60
2019-04-24T20:27:32.803Z,100186.98
2019-04-24T20:30:03.078Z,100190.41
2019-04-24T20:32:36.390Z,100175.39
2019-04-24T20:35:06.819Z,100165.02
2019-04-24T20:37:37.213Z,100179.98
2019-04-24T20:40:08.474Z,100202.16
2019-04-24T20:42:38.836Z,100215.72
2019-04-24T20:45:11.447Z,100206.64
2019-04-24T20:47:41.993Z,100188.42
2019-04-24T20:50:16.621Z,100156.35
2019-04-24T20:52:47.778Z,100129.10
2019-04-24T20:55:19.281Z,100131.14
2019-04-24T20:57:51.810Z,100119.34
2019-04-24T21:00:27.695Z,100119.34
2019-04-24T21:02:58.129Z,100102.91
2019-04-24T21:05:42.736Z,100115.61
2019-04-24T21:08:50.469Z,100131.26
2019-04-24T21:11:21.022Z,100131.92
2019-04-24T21:13:51.618Z,100121.02
2019-04-24T21:16:22.825Z,100116.70
2019-04-24T21:18:55.564Z,100128.67
2019-04-24T21:21:28.361Z,100139.66
2019-04-24T21:24:00.269Z,100141.41
2019-04-24T21:26:31.664Z,100144.18
2019-04-24T21:29:03.254Z,100151.36
2019-04-24T21:31:33.920Z,100145.69
2019-04-24T21:34:07.006Z,100144.34
2019-04-24T21:36:37.592Z,100146.77
2019-04-24T21:39:08.132Z,100147.23
2019-04-24T21:41:38.743Z,100148.22
2019-04-24T21:44:09.123Z,100155.08
2019-04-24T21:46:39.761Z,100159.72
2019-04-24T21:49:11.622Z,100163.72
2019-04-24T21:51:42.155Z,100150.27
2019-04-24T21:54:15.210Z,100150.27
2019-04-24T21:56:47.661Z,100154.73
2019-04-24T21:59:18.190Z,100142.97
2019-04-24T22:02:32.378Z,100146.06
2019-04-24T22:05:41.460Z,100152.53
2019-04-24T22:08:13.253Z,100146.15
2019-04-24T22:10:44.839Z,100126.95
2019-04-24T22:13:16.046Z,100126.27
2019-04-24T22:15:46.505Z,100140.36
2019-04-24T22:18:17.312Z,100139.52
2019-04-24T22:20:51.564Z,100153.97
2019-04-24T22:23:29.705Z,100158.22
2019-04-24T22:26:01.129Z,100166.88
2019-04-24T22:28:32.915Z,100169.12
2019-04-24T22:31:20.247Z,100174.56
2019-04-24T22:33:56.780Z,100188.50
2019-04-24T22:36:29.051Z,100180.75
2019-04-24T22:39:18.285Z,100186.69
2019-04-24T22:41:48.814Z,100190.03
2019-04-24T22:44:19.272Z,100191.42
2019-04-24T22:46:50.571Z,100193.16
2019-04-24T22:49:21.441Z,100194.44
2019-04-24T22:51:53.741Z,100192.84
2019-04-24T22:54:30.150Z,100190.73
2019-04-24T22:56:59.001Z,100186.02
2019-04-24T22:59:32.989Z,100177.48
2019-04-24T23:02:02.968Z,100162.13
2019-04-24T23:04:38.149Z,100168.52
2019-04-24T23:07:09.273Z,100160.77
2019-04-24T23:09:41.786Z,100164.00
2019-04-24T23:12:12.265Z,100158.63
2019-04-24T23:14:43.145Z,100170.72
2019-04-24T23:17:13.489Z,100168.04
2019-04-24T23:19:45.654Z,100159.78
2019-04-24T23:22:30.271Z,100162.75
2019-04-24T23:25:11.976Z,100160.17
2019-04-24T23:28:01.603Z,100167.00
2019-04-24T23:30:51.155Z,100169.20
2019-04-24T23:33:27.068Z,100173.06
2019-04-24T23:35:57.715Z,100171.30
2019-04-24T23:38:28.065Z,100168.83
2019-04-24T23:40:58.346Z,100172.58
2019-04-24T23:43:28.722Z,100183.95
2019-04-24T23:45:59.006Z,100187.31
2019-04-24T23:48:29.579Z,100185.47
2019-04-24T23:51:01.797Z,100181.92
2019-04-24T23:53:32.836Z,100181.92
2019-04-24T23:56:03.380Z,100187.77
2019-04-24T23:58:34.005Z,100188.18
